sensor_id;sensor_type;location;lat;lon;timestamp;pressure;altitude;pressure_sealevel;temperature;humidity
12452;BME280;72521;48.924;12.204;2023-08-31T00:03:28;96847.31;;;12.69;89.32
12452;BME280;72521;48.924;12.204;2023-08-31T00:08:31;96857.31;;;12.53;89.82
12452;BME280;72521;48.924;12.204;2023-08-31T00:13:35;96872.47;;;12.71;90.24
12452;BME280;72521;48.924;12.204;2023-08-31T00:18:40;96865.53;;;12.83;89.66
12452;BME280;72521;48.924;12.204;2023-08-31T00:23:43;96860.50;;;12.75;88.92
12452;BME280;72521;48.924;12.204;2023-08-31T00:28:46;96856.03;;;12.76;87.99
12452;BME280;72521;48.924;12.204;2023-08-31T00:33:52;96844.91;;;12.67;88.55
12452;BME280;72521;48.924;12.204;2023-08-31T00:38:55;96842.53;;;12.59;88.01
12452;BME280;72521;48.924;12.204;2023-08-31T00:43:58;96834.97;;;12.62;89.09
12452;BME280;72521;48.924;12.204;2023-08-31T00:49:03;96847.66;;;12.92;87.43
12452;BME280;72521;48.924;12.204;2023-08-31T00:54:06;96851.03;;;12.99;86.59
12452;BME280;72521;48.924;12.204;2023-08-31T00:59:10;96861.34;;;13.07;86.37
12452;BME280;72521;48.924;12.204;2023-08-31T01:04:18;96866.22;;;13.11;85.68
12452;BME280;72521;48.924;12.204;2023-08-31T01:09:31;96860.59;;;13.00;86.68
12452;BME280;72521;48.924;12.204;2023-08-31T01:14:42;96869.44;;;13.13;86.25
12452;BME280;72521;48.924;12.204;2023-08-31T01:19:49;96863.72;;;13.22;84.84
12452;BME280;72521;48.924;12.204;2023-08-31T01:24:55;96869.63;;;13.18;85.04
12452;BME280;72521;48.924;12.204;2023-08-31T01:29:59;96872.69;;;13.15;84.10
12452;BME280;72521;48.924;12.204;2023-08-31T01:35:03;96878.19;;;13.06;84.90
12452;BME280;72521;48.924;12.204;2023-08-31T01:40:13;96888.16;;;13.04;84.98
12452;BME280;72521;48.924;12.204;2023-08-31T01:45:22;96883.06;;;13.03;84.84
12452;BME280;72521;48.924;12.204;2023-08-31T01:50:25;96891.63;;;12.98;85.23
12452;BME280;72521;48.924;12.204;2023-08-31T01:55:30;96897.53;;;12.94;85.02
12452;BME280;72521;48.924;12.204;2023-08-31T02:00:34;96887.59;;;12.96;85.00
12452;BME280;72521;48.924;12.204;2023-08-31T02:05:40;96881.47;;;12.95;85.82
12452;BME280;72521;48.924;12.204;2023-08-31T02:10:46;96885.97;;;12.88;86.22
12452;BME280;72521;48.924;12.204;2023-08-31T02:15:56;96886.19;;;12.86;86.16
12452;BME280;72521;48.924;12.204;2023-08-31T02:21:01;96900.16;;;12.87;86.17
12452;BME280;72521;48.924;12.204;2023-08-31T02:26:07;96894.91;;;12.80;86.69
12452;BME280;72521;48.924;12.204;2023-08-31T02:31:10;96901.63;;;12.76;87.24
12452;BME280;72521;48.924;12.204;2023-08-31T02:36:14;96899.19;;;12.75;87.71
12452;BME280;72521;48.924;12.204;2023-08-31T02:41:18;96912.97;;;12.77;87.17
12452;BME280;72521;48.924;12.204;2023-08-31T02:46:21;96905.28;;;12.75;87.69
12452;BME280;72521;48.924;12.204;2023-08-31T02:51:25;96889.84;;;12.79;87.32
12452;BME280;72521;48.924;12.204;2023-08-31T02:56:29;96885.78;;;12.83;87.38
12452;BME280;72521;48.924;12.204;2023-08-31T03:01:32;96880.88;;;12.93;86.81
12452;BME280;72521;48.924;12.204;2023-08-31T03:06:37;96874.81;;;12.93;86.93
12452;BME280;72521;48.924;12.204;2023-08-31T03:11:41;96874.84;;;12.86;87.20
12452;BME280;72521;48.924;12.204;2023-08-31T03:16:45;96871.59;;;12.84;87.78
12452;BME280;72521;48.924;12.204;2023-08-31T03:21:48;96880.72;;;12.88;87.65
12452;BME280;72521;48.924;12.204;2023-08-31T03:27:02;96895.72;;;12.81;87.87
12452;BME280;72521;48.924;12.204;2023-08-31T03:32:21;96916.22;;;12.79;88.18
12452;BME280;72521;48.924;12.204;2023-08-31T03:37:24;96920.91;;;12.70;88.00
12452;BME280;72521;48.924;12.204;2023-08-31T03:42:29;96933.28;;;12.70;88.46
12452;BME280;72521;48.924;12.204;2023-08-31T03:47:32;96946.63;;;12.75;88.24
12452;BME280;72521;48.924;12.204;2023-08-31T03:52:36;96950.88;;;12.82;87.90
12452;BME280;72521;48.924;12.204;2023-08-31T03:57:41;96945.19;;;12.79;87.58
12452;BME280;72521;48.924;12.204;2023-08-31T04:02:49;96935.31;;;12.68;88.63
12452;BME280;72521;48.924;12.204;2023-08-31T04:07:57;96944.41;;;12.72;87.99
12452;BME280;72521;48.924;12.204;2023-08-31T04:13:01;96956.38;;;12.68;88.15
12452;BME280;72521;48.924;12.204;2023-08-31T04:18:05;96967.31;;;12.64;88.33
12452;BME280;72521;48.924;12.204;2023-08-31T04:23:08;96972.59;;;12.64;88.03
12452;BME280;72521;48.924;12.204;2023-08-31T04:28:13;96972.81;;;12.56;88.01
12452;BME280;72521;48.924;12.204;2023-08-31T04:33:17;96976.88;;;12.52;88.39
12452;BME280;72521;48.924;12.204;2023-08-31T04:38:21;96978.91;;;12.43;88.67
12452;BME280;72521;48.924;12.204;2023-08-31T04:43:25;96993.50;;;12.33;88.70
12452;BME280;72521;48.924;12.204;2023-08-31T04:48:28;96998.75;;;12.33;88.59
12452;BME280;72521;48.924;12.204;2023-08-31T04:53:32;97007.47;;;12.33;88.25
12452;BME280;72521;48.924;12.204;2023-08-31T04:58:36;97018.22;;;12.45;88.15
12452;BME280;72521;48.924;12.204;2023-08-31T05:03:39;97031.16;;;12.60;87.98
12452;BME280;72521;48.924;12.204;2023-08-31T05:08:42;97033.38;;;12.83;87.21
12452;BME280;72521;48.924;12.204;2023-08-31T05:13:47;97038.66;;;12.76;87.07
12452;BME280;72521;48.924;12.204;2023-08-31T05:18:51;97035.22;;;12.76;87.07
12452;BME280;72521;48.924;12.204;2023-08-31T05:23:54;97032.84;;;13.53;83.87
12452;BME280;72521;48.924;12.204;2023-08-31T05:28:58;97044.16;;;14.37;79.72
12452;BME280;72521;48.924;12.204;2023-08-31T05:34:01;97059.72;;;14.77;77.21
12452;BME280;72521;48.924;12.204;2023-08-31T05:39:04;97066.34;;;14.86;76.66
12452;BME280;72521;48.924;12.204;2023-08-31T05:44:09;97075.31;;;15.47;74.49
12452;BME280;72521;48.924;12.204;2023-08-31T05:49:12;97083.25;;;14.53;77.02
12452;BME280;72521;48.924;12.204;2023-08-31T05:54:15;97073.44;;;13.97;80.14
12452;BME280;72521;48.924;12.204;2023-08-31T05:59:20;97078.44;;;13.66;81.21
12452;BME280;72521;48.924;12.204;2023-08-31T06:04:23;97089.19;;;13.72;81.05
12452;BME280;72521;48.924;12.204;2023-08-31T06:09:26;97097.63;;;15.14;75.56
12452;BME280;72521;48.924;12.204;2023-08-31T06:14:31;97087.38;;;15.98;71.69
12452;BME280;72521;48.924;12.204;2023-08-31T06:19:34;97099.72;;;15.67;71.61
12452;BME280;72521;48.924;12.204;2023-08-31T06:24:38;97112.47;;;16.68;68.70
12452;BME280;72521;48.924;12.204;2023-08-31T06:29:43;97117.53;;;16.58;67.10
12452;BME280;72521;48.924;12.204;2023-08-31T06:34:46;97119.81;;;17.43;64.86
12452;BME280;72521;48.924;12.204;2023-08-31T06:39:49;97123.69;;;18.57;60.48
12452;BME280;72521;48.924;12.204;2023-08-31T06:44:54;97128.78;;;17.78;62.95
12452;BME280;72521;48.924;12.204;2023-08-31T06:49:59;97146.25;;;17.03;64.96
12452;BME280;72521;48.924;12.204;2023-08-31T06:55:02;97142.97;;;18.36;61.53
12452;BME280;72521;48.924;12.204;2023-08-31T07:00:10;97141.88;;;17.56;63.41
12452;BME280;72521;48.924;12.204;2023-08-31T07:05:14;97148.16;;;18.02;61.28
12452;BME280;72521;48.924;12.204;2023-08-31T07:10:17;97137.34;;;18.78;60.64
12452;BME280;72521;48.924;12.204;2023-08-31T07:15:21;97132.06;;;19.90;55.17
12452;BME280;72521;48.924;12.204;2023-08-31T07:20:25;97126.69;;;19.84;54.53
12452;BME280;72521;48.924;12.204;2023-08-31T07:25:28;97126.50;;;20.67;54.20
12452;BME280;72521;48.924;12.204;2023-08-31T07:30:33;97142.19;;;19.32;55.67
12452;BME280;72521;48.924;12.204;2023-08-31T07:35:36;97145.03;;;18.91;57.04
12452;BME280;72521;48.924;12.204;2023-08-31T07:40:40;97158.03;;;19.60;54.31
12452;BME280;72521;48.924;12.204;2023-08-31T07:45:45;97158.38;;;20.03;54.85
12452;BME280;72521;48.924;12.204;2023-08-31T07:50:48;97156.16;;;20.44;52.09
12452;BME280;72521;48.924;12.204;2023-08-31T07:55:52;97175.84;;;20.60;54.92
12452;BME280;72521;48.924;12.204;2023-08-31T08:00:58;97186.09;;;21.70;48.76
12452;BME280;72521;48.924;12.204;2023-08-31T08:06:01;97189.53;;;23.07;45.85
12452;BME280;72521;48.924;12.204;2023-08-31T08:11:05;97195.56;;;20.86;50.11
12452;BME280;72521;48.924;12.204;2023-08-31T08:16:09;97199.41;;;19.46;52.49
12452;BME280;72521;48.924;12.204;2023-08-31T08:21:13;97200.59;;;19.38;53.26
12452;BME280;72521;48.924;12.204;2023-08-31T08:26:16;97203.91;;;19.28;54.42
12452;BME280;72521;48.924;12.204;2023-08-31T08:31:20;97191.78;;;18.87;54.88
12452;BME280;72521;48.924;12.204;2023-08-31T08:36:26;97195.69;;;18.96;56.51
12452;BME280;72521;48.924;12.204;2023-08-31T08:41:29;97167.94;;;19.26;54.18
12452;BME280;72521;48.924;12.204;2023-08-31T08:46:36;97189.66;;;18.72;54.65
12452;BME280;72521;48.924;12.204;2023-08-31T08:51:40;97196.69;;;18.09;58.46
12452;BME280;72521;48.924;12.204;2023-08-31T08:56:44;97204.88;;;17.13;61.99
12452;BME280;72521;48.924;12.204;2023-08-31T09:01:48;97213.69;;;16.35;62.53
12452;BME280;72521;48.924;12.204;2023-08-31T09:06:52;97221.94;;;16.45;64.97
12452;BME280;72521;48.924;12.204;2023-08-31T09:11:55;97223.88;;;16.98;63.53
12452;BME280;72521;48.924;12.204;2023-08-31T09:17:00;97227.59;;;16.79;62.02
12452;BME280;72521;48.924;12.204;2023-08-31T09:22:03;97234.75;;;17.86;59.09
12452;BME280;72521;48.924;12.204;2023-08-31T09:27:06;97227.19;;;16.82;61.96
12452;BME280;72521;48.924;12.204;2023-08-31T09:32:16;97238.78;;;17.11;61.36
12452;BME280;72521;48.924;12.204;2023-08-31T09:37:19;97239.19;;;16.84;61.53
12452;BME280;72521;48.924;12.204;2023-08-31T09:42:36;97250.00;;;16.83;61.35
12452;BME280;72521;48.924;12.204;2023-08-31T09:47:41;97248.75;;;17.27;59.91
12452;BME280;72521;48.924;12.204;2023-08-31T09:52:47;97258.59;;;18.33;56.46
12452;BME280;72521;48.924;12.204;2023-08-31T09:57:51;97256.88;;;17.80;54.86
12452;BME280;72521;48.924;12.204;2023-08-31T10:03:15;97261.28;;;17.98;55.27
12452;BME280;72521;48.924;12.204;2023-08-31T10:08:21;97253.66;;;17.66;55.32
12452;BME280;72521;48.924;12.204;2023-08-31T10:13:26;97248.66;;;19.77;51.23
12452;BME280;72521;48.924;12.204;2023-08-31T10:18:35;97246.69;;;18.24;53.42
12452;BME280;72521;48.924;12.204;2023-08-31T10:23:44;97245.19;;;18.16;55.18
12452;BME280;72521;48.924;12.204;2023-08-31T10:28:47;97222.31;;;18.96;49.92
12452;BME280;72521;48.924;12.204;2023-08-31T10:33:57;97235.47;;;20.98;46.21
12452;BME280;72521;48.924;12.204;2023-08-31T10:39:04;97242.69;;;20.09;51.64
12452;BME280;72521;48.924;12.204;2023-08-31T10:44:18;97238.06;;;20.65;44.42
12452;BME280;72521;48.924;12.204;2023-08-31T10:49:23;97218.03;;;19.46;47.79
12452;BME280;72521;48.924;12.204;2023-08-31T10:54:31;97224.13;;;20.58;44.68
12452;BME280;72521;48.924;12.204;2023-08-31T10:59:47;97231.75;;;21.31;44.04
12452;BME280;72521;48.924;12.204;2023-08-31T11:04:55;97223.91;;;20.43;46.65
12452;BME280;72521;48.924;12.204;2023-08-31T11:10:13;97238.53;;;19.28;49.65
12452;BME280;72521;48.924;12.204;2023-08-31T11:15:18;97238.69;;;19.90;47.80
12452;BME280;72521;48.924;12.204;2023-08-31T11:20:24;97245.47;;;19.13;49.18
12452;BME280;72521;48.924;12.204;2023-08-31T11:25:31;97249.75;;;20.20;49.37
12452;BME280;72521;48.924;12.204;2023-08-31T11:30:35;97243.66;;;19.01;49.81
12452;BME280;72521;48.924;12.204;2023-08-31T11:35:43;97230.19;;;18.51;49.89
12452;BME280;72521;48.924;12.204;2023-08-31T11:40:46;97230.19;;;21.35;41.94
12452;BME280;72521;48.924;12.204;2023-08-31T11:45:53;97245.31;;;19.53;45.17
12452;BME280;72521;48.924;12.204;2023-08-31T11:50:58;97253.16;;;18.80;48.93
12452;BME280;72521;48.924;12.204;2023-08-31T11:56:02;97244.72;;;20.63;44.34
12452;BME280;72521;48.924;12.204;2023-08-31T12:01:06;97233.94;;;22.87;37.17
12452;BME280;72521;48.924;12.204;2023-08-31T12:06:11;97246.19;;;20.54;41.32
12452;BME280;72521;48.924;12.204;2023-08-31T12:11:14;97242.38;;;18.75;47.78
12452;BME280;72521;48.924;12.204;2023-08-31T12:16:18;97238.00;;;20.60;44.74
12452;BME280;72521;48.924;12.204;2023-08-31T12:21:24;97236.63;;;22.82;40.77
12452;BME280;72521;48.924;12.204;2023-08-31T12:26:27;97232.16;;;21.13;42.45
12452;BME280;72521;48.924;12.204;2023-08-31T12:31:31;97235.56;;;22.89;42.55
12452;BME280;72521;48.924;12.204;2023-08-31T12:36:36;97233.38;;;22.07;41.16
12452;BME280;72521;48.924;12.204;2023-08-31T12:41:42;97237.78;;;23.17;39.64
12452;BME280;72521;48.924;12.204;2023-08-31T12:46:45;97241.25;;;23.54;40.87
12452;BME280;72521;48.924;12.204;2023-08-31T12:51:50;97232.56;;;22.70;42.12
12452;BME280;72521;48.924;12.204;2023-08-31T12:56:53;97248.09;;;20.14;45.61
12452;BME280;72521;48.924;12.204;2023-08-31T13:01:57;97240.72;;;22.32;41.58
12452;BME280;72521;48.924;12.204;2023-08-31T13:07:01;97242.69;;;21.99;41.85
12452;BME280;72521;48.924;12.204;2023-08-31T13:12:05;97243.03;;;21.38;41.01
12452;BME280;72521;48.924;12.204;2023-08-31T13:17:08;97232.66;;;21.74;40.85
12452;BME280;72521;48.924;12.204;2023-08-31T13:22:14;97234.19;;;22.86;38.81
12452;BME280;72521;48.924;12.204;2023-08-31T13:27:18;97230.53;;;23.59;38.67
12452;BME280;72521;48.924;12.204;2023-08-31T13:32:22;97232.00;;;20.97;40.19
12452;BME280;72521;48.924;12.204;2023-08-31T13:37:27;97237.56;;;21.23;40.20
12452;BME280;72521;48.924;12.204;2023-08-31T13:42:34;97236.31;;;20.10;42.66
12452;BME280;72521;48.924;12.204;2023-08-31T13:47:40;97242.19;;;19.39;44.31
12452;BME280;72521;48.924;12.204;2023-08-31T13:52:50;97243.81;;;19.74;40.70
12452;BME280;72521;48.924;12.204;2023-08-31T13:57:54;97246.25;;;19.76;43.70
12452;BME280;72521;48.924;12.204;2023-08-31T14:02:57;97251.31;;;19.43;41.91
12452;BME280;72521;48.924;12.204;2023-08-31T14:08:06;97248.13;;;19.63;41.84
12452;BME280;72521;48.924;12.204;2023-08-31T14:13:10;97237.63;;;21.60;39.21
12452;BME280;72521;48.924;12.204;2023-08-31T14:18:13;97234.84;;;23.80;33.81
12452;BME280;72521;48.924;12.204;2023-08-31T14:23:19;97226.16;;;22.86;35.35
12452;BME280;72521;48.924;12.204;2023-08-31T14:28:22;97234.66;;;22.04;36.92
12452;BME280;72521;48.924;12.204;2023-08-31T14:33:26;97226.72;;;21.02;38.83
12452;BME280;72521;48.924;12.204;2023-08-31T14:38:31;97234.09;;;21.55;38.34
12452;BME280;72521;48.924;12.204;2023-08-31T14:43:35;97237.63;;;22.08;37.55
12452;BME280;72521;48.924;12.204;2023-08-31T14:48:39;97228.72;;;21.92;38.49
12452;BME280;72521;48.924;12.204;2023-08-31T14:53:44;97238.81;;;21.42;38.83
12452;BME280;72521;48.924;12.204;2023-08-31T14:58:50;97248.25;;;22.35;36.57
12452;BME280;72521;48.924;12.204;2023-08-31T15:03:53;97238.66;;;21.54;36.44
12452;BME280;72521;48.924;12.204;2023-08-31T15:08:58;97252.63;;;20.80;38.01
12452;BME280;72521;48.924;12.204;2023-08-31T15:14:01;97258.59;;;22.21;35.79
12452;BME280;72521;48.924;12.204;2023-08-31T15:19:04;97261.09;;;23.73;33.32
12452;BME280;72521;48.924;12.204;2023-08-31T15:24:09;97259.19;;;23.12;34.53
12452;BME280;72521;48.924;12.204;2023-08-31T15:29:13;97250.91;;;21.87;37.64
12452;BME280;72521;48.924;12.204;2023-08-31T15:34:16;97252.03;;;21.97;36.62
12452;BME280;72521;48.924;12.204;2023-08-31T15:39:21;97255.19;;;22.36;34.30
12452;BME280;72521;48.924;12.204;2023-08-31T15:44:26;97253.16;;;21.36;36.40
12452;BME280;72521;48.924;12.204;2023-08-31T15:49:29;97248.47;;;19.67;39.49
12452;BME280;72521;48.924;12.204;2023-08-31T15:54:34;97248.34;;;18.94;41.43
12452;BME280;72521;48.924;12.204;2023-08-31T15:59:38;97262.50;;;20.13;40.64
12452;BME280;72521;48.924;12.204;2023-08-31T16:04:41;97255.75;;;21.26;39.24
12452;BME280;72521;48.924;12.204;2023-08-31T16:09:49;97257.28;;;20.90;39.49
12452;BME280;72521;48.924;12.204;2023-08-31T16:14:53;97252.09;;;22.12;37.78
12452;BME280;72521;48.924;12.204;2023-08-31T16:19:58;97257.19;;;21.06;39.45
12452;BME280;72521;48.924;12.204;2023-08-31T16:25:04;97255.44;;;21.22;39.66
12452;BME280;72521;48.924;12.204;2023-08-31T16:30:09;97251.16;;;20.94;39.86
12452;BME280;72521;48.924;12.204;2023-08-31T16:35:13;97249.91;;;20.75;40.93
12452;BME280;72521;48.924;12.204;2023-08-31T16:40:18;97255.91;;;20.87;40.46
12452;BME280;72521;48.924;12.204;2023-08-31T16:45:22;97251.25;;;20.55;41.35
12452;BME280;72521;48.924;12.204;2023-08-31T16:50:29;97260.56;;;20.09;42.16
12452;BME280;72521;48.924;12.204;2023-08-31T16:55:38;97257.44;;;18.70;46.33
12452;BME280;72521;48.924;12.204;2023-08-31T17:00:43;97263.13;;;18.09;48.99
12452;BME280;72521;48.924;12.204;2023-08-31T17:05:51;97256.00;;;17.86;49.85
12452;BME280;72521;48.924;12.204;2023-08-31T17:10:56;97245.78;;;17.59;50.24
12452;BME280;72521;48.924;12.204;2023-08-31T17:16:00;97244.16;;;17.35;51.55
12452;BME280;72521;48.924;12.204;2023-08-31T17:21:03;97245.16;;;17.22;51.79
12452;BME280;72521;48.924;12.204;2023-08-31T17:26:20;97238.56;;;17.13;53.68
12452;BME280;72521;48.924;12.204;2023-08-31T17:31:24;97230.22;;;16.97;54.16
12452;BME280;72521;48.924;12.204;2023-08-31T17:36:28;97240.44;;;16.82;54.85
12452;BME280;72521;48.924;12.204;2023-08-31T17:41:33;97248.69;;;16.74;55.20
12452;BME280;72521;48.924;12.204;2023-08-31T17:46:37;97244.13;;;16.62;55.35
12452;BME280;72521;48.924;12.204;2023-08-31T17:51:40;97251.38;;;16.55;55.49
12452;BME280;72521;48.924;12.204;2023-08-31T17:56:44;97264.34;;;16.45;56.73
12452;BME280;72521;48.924;12.204;2023-08-31T18:01:48;97267.28;;;16.37;56.97
12452;BME280;72521;48.924;12.204;2023-08-31T18:06:51;97277.03;;;16.24;57.88
12452;BME280;72521;48.924;12.204;2023-08-31T18:11:56;97284.88;;;16.13;59.38
12452;BME280;72521;48.924;12.204;2023-08-31T18:17:00;97286.25;;;15.97;60.72
12452;BME280;72521;48.924;12.204;2023-08-31T18:22:04;97291.53;;;15.78;60.99
12452;BME280;72521;48.924;12.204;2023-08-31T18:27:09;97293.44;;;15.64;61.82
12452;BME280;72521;48.924;12.204;2023-08-31T18:32:13;97293.25;;;15.34;64.56
12452;BME280;72521;48.924;12.204;2023-08-31T18:37:17;97303.16;;;15.45;63.43
12452;BME280;72521;48.924;12.204;2023-08-31T18:42:22;97312.63;;;15.60;62.35
12452;BME280;72521;48.924;12.204;2023-08-31T18:47:26;97314.22;;;15.61;63.27
12452;BME280;72521;48.924;12.204;2023-08-31T18:52:30;97322.81;;;15.56;63.26
12452;BME280;72521;48.924;12.204;2023-08-31T18:57:34;97320.22;;;15.50;63.62
12452;BME280;72521;48.924;12.204;2023-08-31T19:02:39;97325.34;;;15.44;62.53
12452;BME280;72521;48.924;12.204;2023-08-31T19:07:43;97324.75;;;15.42;62.70
12452;BME280;72521;48.924;12.204;2023-08-31T19:12:47;97329.50;;;15.34;63.11
12452;BME280;72521;48.924;12.204;2023-08-31T19:17:52;97341.72;;;15.35;63.35
12452;BME280;72521;48.924;12.204;2023-08-31T19:22:55;97339.09;;;15.28;63.99
12452;BME280;72521;48.924;12.204;2023-08-31T19:28:00;97347.06;;;15.21;64.02
12452;BME280;72521;48.924;12.204;2023-08-31T19:33:04;97345.63;;;15.25;64.16
12452;BME280;72521;48.924;12.204;2023-08-31T19:38:07;97351.09;;;15.31;64.27
12452;BME280;72521;48.924;12.204;2023-08-31T19:43:12;97343.63;;;15.21;64.91
12452;BME280;72521;48.924;12.204;2023-08-31T19:48:16;97351.22;;;15.11;66.16
12452;BME280;72521;48.924;12.204;2023-08-31T19:53:21;97354.78;;;14.84;67.17
12452;BME280;72521;48.924;12.204;2023-08-31T19:58:27;97352.72;;;14.93;66.66
12452;BME280;72521;48.924;12.204;2023-08-31T20:03:32;97361.91;;;14.84;68.08
12452;BME280;72521;48.924;12.204;2023-08-31T20:08:40;97356.66;;;14.71;68.66
12452;BME280;72521;48.924;12.204;2023-08-31T20:13:44;97354.22;;;14.76;68.35
12452;BME280;72521;48.924;12.204;2023-08-31T20:18:49;97353.19;;;14.83;67.33
12452;BME280;72521;48.924;12.204;2023-08-31T20:23:53;97354.84;;;14.64;69.12
12452;BME280;72521;48.924;12.204;2023-08-31T20:28:59;97355.88;;;14.50;70.18
12452;BME280;72521;48.924;12.204;2023-08-31T20:34:02;97359.53;;;14.62;68.83
12452;BME280;72521;48.924;12.204;2023-08-31T20:39:06;97363.00;;;14.50;69.69
12452;BME280;72521;48.924;12.204;2023-08-31T20:44:15;97367.31;;;14.37;70.26
12452;BME280;72521;48.924;12.204;2023-08-31T20:49:18;97375.47;;;14.22;70.84
12452;BME280;72521;48.924;12.204;2023-08-31T20:54:22;97379.53;;;14.05;71.98
12452;BME280;72521;48.924;12.204;2023-08-31T20:59:26;97377.50;;;13.87;72.29
12452;BME280;72521;48.924;12.204;2023-08-31T21:04:31;97382.41;;;13.83;72.55
12452;BME280;72521;48.924;12.204;2023-08-31T21:09:34;97393.34;;;14.07;71.62
12452;BME280;72521;48.924;12.204;2023-08-31T21:14:38;97394.97;;;14.35;71.32
12452;BME280;72521;48.924;12.204;2023-08-31T21:19:42;97393.34;;;14.27;71.92
12452;BME280;72521;48.924;12.204;2023-08-31T21:24:45;97386.63;;;14.24;72.60
12452;BME280;72521;48.924;12.204;2023-08-31T21:29:49;97390.09;;;14.25;74.45
12452;BME280;72521;48.924;12.204;2023-08-31T21:34:52;97400.63;;;14.32;74.79
12452;BME280;72521;48.924;12.204;2023-08-31T21:39:56;97403.25;;;14.38;74.69
12452;BME280;72521;48.924;12.204;2023-08-31T21:45:00;97394.34;;;14.26;75.09
12452;BME280;72521;48.924;12.204;2023-08-31T21:50:04;97397.19;;;14.18;75.53
12452;BME280;72521;48.924;12.204;2023-08-31T21:55:08;97391.31;;;14.22;75.52
12452;BME280;72521;48.924;12.204;2023-08-31T22:00:13;97396.19;;;14.19;74.85
12452;BME280;72521;48.924;12.204;2023-08-31T22:05:18;97411.84;;;14.20;75.32
12452;BME280;72521;48.924;12.204;2023-08-31T22:10:22;97416.09;;;14.15;74.61
12452;BME280;72521;48.924;12.204;2023-08-31T22:15:28;97426.25;;;14.11;74.92
12452;BME280;72521;48.924;12.204;2023-08-31T22:20:31;97429.50;;;14.06;75.55
12452;BME280;72521;48.924;12.204;2023-08-31T22:25:34;97436.00;;;14.17;75.31
12452;BME280;72521;48.924;12.204;2023-08-31T22:30:39;97430.53;;;14.19;74.95
12452;BME280;72521;48.924;12.204;2023-08-31T22:35:43;97426.47;;;14.16;74.84
12452;BME280;72521;48.924;12.204;2023-08-31T22:40:47;97430.53;;;14.12;75.90
12452;BME280;72521;48.924;12.204;2023-08-31T22:45:56;97424.22;;;13.86;78.09
12452;BME280;72521;48.924;12.204;2023-08-31T22:50:59;97419.31;;;13.77;78.62
12452;BME280;72521;48.924;12.204;2023-08-31T22:56:04;97434.34;;;13.83;79.71
12452;BME280;72521;48.924;12.204;2023-08-31T23:01:09;97428.69;;;14.13;78.39
12452;BME280;72521;48.924;12.204;2023-08-31T23:06:12;97432.75;;;14.22;77.45
12452;BME280;72521;48.924;12.204;2023-08-31T23:11:15;97436.41;;;14.21;77.32
12452;BME280;72521;48.924;12.204;2023-08-31T23:16:20;97433.56;;;14.16;77.54
12452;BME280;72521;48.924;12.204;2023-08-31T23:21:23;97430.53;;;14.12;78.15
12452;BME280;72521;48.924;12.204;2023-08-31T23:26:41;97435.00;;;13.98;79.20
12452;BME280;72521;48.924;12.204;2023-08-31T23:31:46;97440.06;;;14.20;78.18
12452;BME280;72521;48.924;12.204;2023-08-31T23:36:49;97441.91;;;14.19;78.18
12452;BME280;72521;48.924;12.204;2023-08-31T23:41:53;97432.56;;;14.10;79.67
12452;BME280;72521;48.924;12.204;2023-08-31T23:46:57;97432.16;;;14.00;79.52
12452;BME280;72521;48.924;12.204;2023-08-31T23:52:01;97428.50;;;13.88;80.66
12452;BME280;72521;48.924;12.204;2023-08-31T23:57:04;97429.88;;;13.63;82.15
